AirNav   Everest Fuels
 
 396 users online  

AZ34 Massey Farm Airport
Yucca, Arizona, USA

GOING TO YUCCA?


FAA INFORMATION EFFECTIVE 16 JULY 2020

Location

FAA Identifier: AZ34
Lat/Long: 34-41-29.1400N 114-05-51.8600W
34-41.485667N 114-05.864333W
34.6914278,-114.0977389
(estimated)
Elevation: 1630 ft. / 497 m (estimated)
From city: 16 miles S of YUCCA, AZ
Time zone: UTC -7 (year round; does not observe DST)
Zip code: 86404

Airport Operations

Airport use: Private use. Permission required prior to landing
Activation date: 01/2007
Control tower: no
ARTCC: LOS ANGELES CENTER
FSS: PRESCOTT FLIGHT SERVICE STATION
Attendance: UNATNDD
Segmented circle: no

Airport Communications

WX AWOS-3 at HII (15 nm SW): 119.025 (928-764-2309)

Nearby radio navigation aids

VOR radial/distance  VOR name  Freq  Var
EEDr089/19.1NEEDLES VORTAC115.2015E
IGMr178/35.1KINGMAN VOR/DME108.8015E

Airport Services

Runway Information

Runway 18/36

Dimensions: 1320 x 60 ft. / 402 x 18 m
Surface: dirt
RUNWAY 18  RUNWAY 36
Traffic pattern: leftleft

Airport Ownership and Management from official FAA records

Ownership: Privately-owned
Owner: RAE MASSEY
18370 S PIPELINE RD
YUCCA, AZ 86438
Phone 928-727-2818
Manager: CHRISTOPHER MASSEY
PO BOX 384
YUCCA, AZ 86438
Phone 928-727-2818

Additional Remarks

FOR CD CTC LOS ANGELES ARTCC AT 661-575-2079.

Instrument Procedures

There are no published instrument procedures at AZ34.

Some nearby airports with instrument procedures:

KHII - Lake Havasu City Airport (15 nm SW)
KEED - Needles Airport (26 nm W)
P20 - Avi Suquilla Airport (34 nm S)
KIGM - Kingman Airport (35 nm N)
KIFP - Laughlin/Bullhead International Airport (36 nm NW)
 
Loc | Ops | Rwys | IFR | FBO | Links
Com | Nav | Svcs | Stats | Notes
Aerial photo
No photo
 
Sectional chart

 
Airport distance calculator
Flying to Massey Farm Airport? Find the distance to fly.

From to AZ34

Sunrise and sunset
Times for 07-Aug-2020
 Local
(UTC-7)
 Zulu
(UTC)
Morning civil twilight05:2512:25
Sunrise05:5312:53
Sunset19:3102:31
Evening civil twilight19:5802:58

Current date and time
Zulu (UTC)  07-Aug-2020 09:59:32
Local (UTC-7)  07-Aug-2020 02:59:32
 
METAR
KHII 
15nm SW 
070935Z AUTO 00000KT 10SM CLR 29/M03 A2974 RMK AO2
KEED 
26nm W 
070856Z AUTO 00000KT 10SM CLR 31/M05 A2974 RMK AO2 SLP036 T03061050 53004
KIFP 
27nm NW 
070050Z 17013KT 10SM SKC 40/M05 A2966
TAF
KEED 
26nm W 
070520Z 0706/0806 23007KT P6SM SKC FM071100 VRB05KT P6SM SKC FM071800 18012KT P6SM SKC FM080200 21009KT P6SM SKC
KIFP 
27nm NW 
070627Z 0706/0806 15010KT P6SM SKC FM070900 VRB05KT P6SM SKC FM071800 18009KT P6SM SKC FM080200 15006KT P6SM SKC AMD NOT SKED
NOTAMs
Click for the latest NOTAMs
NOTAMs are issued by the DoD/FAA and will open in a separate window not controlled by AirNav.

 

 
 

Would you like to see your business listed on this page?

 If your business provides an interesting product or service to pilots, flight crews, aircraft, or users of the Massey Farm Airport, you should consider listing it here.  To start the listing process, click on the button below
 
Add a business
 

Other Pages about Massey Farm Airport

Update a link
 
Copyright © AirNav, LLC. All rights reserved. Privacy Policy  Contact